createdAt,value
2018-12-24T00:03:24.098Z,18.77
2018-12-24T00:17:55.554Z,12.03
2018-12-24T00:20:31.835Z,7.75
2018-12-24T00:26:22.542Z,7.83
2018-12-24T00:28:55.214Z,3.97
2018-12-24T00:31:27.365Z,5.35
2018-12-24T00:34:06.849Z,3.50
2018-12-24T00:37:46.718Z,4.10
2018-12-24T00:43:29.586Z,2.60
2018-12-24T00:51:07.674Z,2.35
2018-12-24T01:43:06.071Z,2.30
2018-12-24T01:45:35.071Z,3.53
2018-12-24T01:48:04.029Z,1.80
2018-12-24T01:50:33.073Z,2.17
2018-12-24T01:53:02.513Z,2.20
2018-12-24T01:55:31.705Z,2.07
2018-12-24T01:58:00.681Z,2.63
2018-12-24T02:00:29.841Z,3.07
2018-12-24T02:02:58.764Z,1.47
2018-12-24T02:05:27.669Z,2.17
2018-12-24T02:07:56.561Z,3.90
2018-12-24T02:10:25.550Z,2.40
2018-12-24T02:12:54.724Z,3.63
2018-12-24T02:15:23.652Z,2.63
2018-12-24T02:17:52.489Z,1.60
2018-12-24T02:20:21.408Z,2.83
2018-12-24T02:22:50.285Z,3.07
2018-12-24T02:25:19.509Z,3.57
2018-12-24T02:27:48.760Z,2.50
2018-12-24T02:30:19.280Z,2.17
2018-12-24T02:32:48.325Z,2.10
2018-12-24T02:35:17.249Z,2.77
2018-12-24T02:37:46.408Z,5.53
2018-12-24T02:40:15.314Z,3.53
2018-12-24T02:42:52.250Z,5.07
2018-12-24T02:45:13.165Z,3.87
2018-12-24T02:47:42.118Z,6.50
2018-12-24T02:50:11.513Z,7.17
2018-12-24T02:52:40.724Z,5.57
2018-12-24T02:55:23.630Z,5.47
2018-12-24T02:57:52.624Z,2.93
2018-12-24T03:02:57.940Z,2.57
2018-12-24T03:05:26.888Z,1.60
2018-12-24T03:07:56.061Z,3.13
2018-12-24T03:10:32.917Z,1.57
2018-12-24T03:13:02.778Z,4.80
2018-12-24T03:15:32.076Z,1.47
2018-12-24T03:18:01.240Z,1.57
2018-12-24T03:24:32.661Z,2.30
2018-12-24T03:29:40.086Z,2.23
2018-12-24T03:32:09.277Z,2.17
2018-12-24T03:58:48.092Z,2.00
2018-12-24T04:01:17.450Z,4.00
2018-12-24T04:03:47.785Z,3.43
2018-12-24T04:06:25.112Z,3.43
2018-12-24T04:08:53.920Z,2.67
2018-12-24T04:11:24.043Z,2.80
2018-12-24T04:13:51.729Z,4.83
2018-12-24T04:16:20.696Z,3.67
2018-12-24T04:18:49.699Z,3.77
2018-12-24T04:43:19.475Z,1.80
2018-12-24T04:45:49.329Z,2.60
2018-12-24T04:48:24.847Z,1.70
2018-12-24T04:51:11.627Z,1.50
2018-12-24T04:53:59.056Z,1.33
2018-12-24T05:00:16.619Z,3.80
2018-12-24T05:03:05.171Z,3.47
2018-12-24T05:11:46.624Z,3.07
2018-12-24T05:35:25.977Z,5.77
2018-12-24T06:01:51.947Z,5.10
2018-12-24T06:04:22.252Z,4.33
2018-12-24T06:06:54.606Z,3.83
2018-12-24T06:09:28.595Z,5.30
2018-12-24T06:11:57.479Z,5.73
2018-12-24T06:14:27.098Z,8.23
2018-12-24T06:16:56.080Z,2.60
2018-12-24T06:19:25.095Z,1.97
2018-12-24T06:21:53.987Z,3.40
2018-12-24T06:24:22.851Z,5.37
2018-12-24T06:30:33.552Z,4.97
2018-12-24T06:33:13.615Z,6.47
2018-12-24T06:35:42.596Z,4.27
2018-12-24T06:40:50.879Z,5.60
2018-12-24T06:43:19.872Z,6.30
2018-12-24T06:45:49.108Z,5.90
2018-12-24T06:48:43.510Z,6.87
2018-12-24T06:51:21.407Z,6.41
2018-12-24T06:54:19.123Z,7.50
2018-12-24T06:56:48.023Z,4.70
2018-12-24T06:59:16.992Z,2.77
2018-12-24T07:02:31.027Z,4.30
2018-12-24T07:05:26.777Z,5.63
2018-12-24T07:07:55.775Z,4.07
2018-12-24T07:10:25.355Z,4.50
2018-12-24T07:12:54.819Z,5.17
2018-12-24T07:15:25.977Z,2.25
2018-12-24T07:18:01.686Z,1.40
2018-12-24T07:20:38.087Z,3.23
2018-12-24T07:23:07.319Z,4.70
2018-12-24T07:25:39.155Z,4.00
2018-12-24T07:28:08.675Z,2.50
2018-12-24T07:30:41.989Z,5.20
2018-12-24T07:33:28.167Z,10.40
2018-12-24T07:35:57.299Z,13.73
2018-12-24T07:38:26.223Z,13.80
2018-12-24T08:04:33.395Z,3.43
2018-12-24T08:10:57.371Z,5.57
2018-12-24T08:13:42.698Z,5.30
2018-12-24T08:22:07.627Z,7.43
2018-12-24T08:38:20.911Z,2.63
2018-12-24T08:40:49.868Z,2.27
2018-12-24T08:43:20.090Z,2.13
2018-12-24T08:45:48.929Z,2.27
2018-12-24T08:48:17.476Z,2.12
2018-12-24T08:50:46.446Z,4.03
2018-12-24T08:53:17.845Z,3.47
2018-12-24T08:55:46.737Z,1.97
2018-12-24T08:58:15.298Z,2.63
2018-12-24T09:00:48.811Z,2.50
2018-12-24T09:03:17.692Z,4.47
2018-12-24T09:05:46.390Z,5.00
2018-12-24T09:08:15.002Z,6.33
2018-12-24T09:10:44.670Z,3.90
2018-12-24T09:13:13.346Z,5.70
2018-12-24T09:15:44.298Z,3.00
2018-12-24T09:18:13.374Z,9.23
2018-12-24T09:20:42.210Z,7.07
2018-12-24T09:23:11.190Z,6.20
2018-12-24T09:25:41.462Z,9.83
2018-12-24T09:28:09.983Z,12.13
2018-12-24T09:30:42.551Z,8.90
2018-12-24T09:33:11.263Z,10.77
2018-12-24T09:35:39.867Z,9.73
2018-12-24T09:38:08.799Z,7.60
2018-12-24T09:40:37.382Z,7.60
2018-12-24T09:43:06.029Z,11.50
2018-12-24T09:45:36.322Z,5.17
2018-12-24T09:48:05.416Z,8.37
2018-12-24T09:50:34.207Z,9.07
2018-12-24T09:53:04.286Z,11.87
2018-12-24T09:55:33.523Z,17.13
2018-12-24T09:58:02.615Z,12.60
2018-12-24T10:00:31.587Z,9.33
2018-12-24T10:03:10.650Z,11.03
2018-12-24T10:05:39.508Z,7.67
2018-12-24T10:08:12.227Z,9.83
2018-12-24T10:10:41.271Z,9.93
2018-12-24T10:13:09.910Z,21.83
2018-12-24T10:15:38.666Z,17.23
2018-12-24T10:18:07.315Z,17.10
2018-12-24T10:20:36.063Z,17.80
2018-12-24T10:23:05.098Z,12.13
2018-12-24T10:25:33.790Z,14.70
2018-12-24T10:28:02.559Z,12.27
2018-12-24T10:30:31.774Z,10.87
2018-12-24T10:33:02.774Z,13.67
2018-12-24T10:35:31.746Z,14.27
2018-12-24T10:38:00.706Z,32.90
2018-12-24T10:40:29.655Z,13.03
2018-12-24T10:42:58.158Z,8.05
2018-12-24T10:45:27.302Z,8.07
2018-12-24T10:47:56.214Z,10.18
2018-12-24T10:50:24.906Z,7.07
2018-12-24T10:52:53.589Z,6.13
2018-12-24T10:55:22.062Z,7.33
2018-12-24T10:57:51.642Z,6.73
2018-12-24T11:00:20.294Z,6.25
2018-12-24T11:02:48.926Z,9.43
2018-12-24T11:05:17.822Z,8.43
2018-12-24T11:07:46.934Z,9.43
2018-12-24T11:10:15.522Z,7.40
2018-12-24T11:12:45.010Z,7.37
2018-12-24T11:15:13.862Z,8.67
2018-12-24T11:17:42.585Z,9.40
2018-12-24T11:20:11.058Z,9.40
2018-12-24T11:22:40.005Z,16.87
2018-12-24T11:25:09.933Z,14.03
2018-12-24T11:27:38.373Z,11.37
2018-12-24T11:30:07.937Z,10.40
2018-12-24T11:32:36.630Z,11.33
2018-12-24T11:35:05.293Z,8.60
2018-12-24T11:37:34.418Z,11.23
2018-12-24T11:40:03.089Z,10.23
2018-12-24T11:42:31.617Z,8.20
2018-12-24T11:45:00.181Z,7.70
2018-12-24T11:47:28.621Z,7.93
2018-12-24T11:49:57.085Z,8.73
2018-12-24T11:52:25.562Z,7.93
2018-12-24T11:54:54.191Z,10.80
2018-12-24T11:57:22.973Z,8.80
2018-12-24T11:59:51.425Z,10.00
2018-12-24T12:02:19.881Z,11.13
2018-12-24T12:04:48.421Z,13.43
2018-12-24T12:07:16.989Z,16.70
2018-12-24T12:09:45.530Z,9.13
2018-12-24T12:12:14.013Z,9.83
2018-12-24T12:14:42.461Z,7.60
2018-12-24T12:17:11.029Z,8.27
2018-12-24T12:19:39.869Z,4.63
2018-12-24T12:22:08.421Z,6.80
2018-12-24T12:24:40.225Z,5.73
2018-12-24T12:27:08.821Z,14.10
2018-12-24T12:29:37.689Z,4.53
2018-12-24T12:32:06.442Z,6.20
2018-12-24T12:34:35.070Z,8.33
2018-12-24T12:37:04.649Z,10.67
2018-12-24T12:39:33.469Z,12.87
2018-12-24T12:42:02.058Z,14.23
2018-12-24T12:44:35.513Z,8.53
2018-12-24T12:47:05.089Z,9.37
2018-12-24T12:49:34.145Z,11.10
2018-12-24T12:52:02.672Z,11.37
2018-12-24T12:54:32.018Z,15.13
2018-12-24T12:57:00.573Z,14.73
2018-12-24T12:59:29.275Z,18.00
2018-12-24T13:01:57.940Z,14.70
2018-12-24T13:04:27.040Z,15.00
2018-12-24T13:06:55.669Z,18.00
2018-12-24T13:09:24.781Z,16.67
2018-12-24T13:11:53.249Z,16.93
2018-12-24T13:14:21.784Z,13.60
2018-12-24T13:16:50.871Z,19.70
2018-12-24T13:19:19.385Z,14.00
2018-12-24T13:21:48.657Z,13.63
2018-12-24T13:24:17.304Z,15.97
2018-12-24T13:26:45.788Z,14.67
2018-12-24T13:29:14.396Z,17.37
2018-12-24T13:31:42.880Z,11.37
2018-12-24T13:34:11.369Z,9.37
2018-12-24T13:36:39.931Z,8.70
2018-12-24T13:39:08.563Z,11.13
2018-12-24T13:41:37.103Z,9.07
2018-12-24T13:44:05.851Z,12.67
2018-12-24T13:46:34.420Z,14.60
2018-12-24T13:49:02.959Z,9.47
2018-12-24T13:51:31.441Z,9.73
2018-12-24T13:53:59.960Z,8.93
2018-12-24T13:56:28.732Z,6.60
2018-12-24T13:58:57.337Z,8.80
2018-12-24T14:01:26.017Z,10.53
2018-12-24T14:03:54.877Z,11.80
2018-12-24T14:06:23.836Z,14.23
2018-12-24T14:08:53.101Z,9.70
2018-12-24T14:11:21.912Z,12.37
2018-12-24T14:13:50.880Z,12.83
2018-12-24T14:16:19.538Z,8.97
2018-12-24T14:18:48.360Z,10.17
2018-12-24T14:21:16.881Z,13.00
2018-12-24T14:23:45.328Z,11.97
2018-12-24T14:26:13.920Z,14.97
2018-12-24T14:28:43.401Z,17.07
2018-12-24T14:31:12.306Z,11.20
2018-12-24T14:33:41.096Z,12.07
2018-12-24T14:36:09.672Z,6.70
2018-12-24T14:38:38.954Z,11.00
2018-12-24T14:41:07.884Z,9.43
2018-12-24T14:43:36.700Z,7.33
2018-12-24T14:46:05.461Z,5.80
2018-12-24T14:48:34.328Z,10.33
2018-12-24T14:51:03.200Z,6.17
2018-12-24T14:53:31.842Z,9.03
2018-12-24T14:56:00.405Z,5.93
2018-12-24T14:58:32.338Z,6.20
2018-12-24T15:01:01.017Z,4.37
2018-12-24T15:03:30.168Z,7.73
2018-12-24T15:05:58.684Z,8.27
2018-12-24T15:08:27.281Z,6.67
2018-12-24T15:10:59.032Z,5.40
2018-12-24T15:13:27.584Z,7.03
2018-12-24T15:15:56.120Z,8.13
2018-12-24T15:18:25.200Z,9.57
2018-12-24T15:20:54.596Z,5.97
2018-12-24T15:23:23.112Z,8.33
2018-12-24T15:25:51.736Z,8.13
2018-12-24T15:28:21.023Z,4.60
2018-12-24T15:30:49.726Z,5.57
2018-12-24T15:33:18.347Z,6.37
2018-12-24T15:35:46.927Z,6.40
2018-12-24T15:38:15.496Z,7.30
2018-12-24T15:40:44.115Z,9.20
2018-12-24T15:43:12.595Z,7.80
2018-12-24T15:45:41.097Z,6.77
2018-12-24T15:48:10.045Z,7.40
2018-12-24T15:50:38.997Z,9.50
2018-12-24T15:53:07.949Z,6.10
2018-12-24T15:55:36.730Z,5.63
2018-12-24T15:58:05.376Z,7.30
2018-12-24T16:00:34.117Z,8.27
2018-12-24T16:03:02.777Z,7.17
2018-12-24T16:05:31.509Z,7.20
2018-12-24T16:08:03.723Z,5.53
2018-12-24T16:10:32.323Z,5.30
2018-12-24T16:13:01.586Z,6.50
2018-12-24T16:15:30.107Z,11.00
2018-12-24T16:17:58.578Z,7.67
2018-12-24T16:20:27.509Z,7.83
2018-12-24T16:22:56.134Z,9.07
2018-12-24T16:25:24.895Z,5.67
2018-12-24T16:27:53.682Z,6.20
2018-12-24T16:30:22.316Z,6.60
2018-12-24T16:32:51.071Z,8.20
2018-12-24T16:35:19.811Z,10.75
2018-12-24T16:37:48.719Z,11.63
2018-12-24T16:40:17.603Z,14.67
2018-12-24T16:42:46.163Z,14.63
2018-12-24T16:45:14.999Z,17.13
2018-12-24T16:47:44.026Z,16.50
2018-12-24T16:50:12.734Z,13.47
2018-12-24T16:52:42.420Z,11.17
2018-12-24T16:55:11.431Z,12.20
2018-12-24T16:57:41.362Z,7.03
2018-12-24T17:00:09.962Z,8.77
2018-12-24T17:02:38.759Z,9.80
2018-12-24T17:05:07.654Z,7.70
2018-12-24T17:07:36.558Z,8.87
2018-12-24T17:10:06.351Z,7.20
2018-12-24T17:12:35.130Z,13.63
2018-12-24T17:15:04.487Z,14.77
2018-12-24T17:17:34.159Z,10.27
2018-12-24T17:20:02.813Z,7.30
2018-12-24T17:22:31.630Z,6.07
2018-12-24T17:25:00.435Z,8.83
2018-12-24T17:27:29.212Z,7.50
2018-12-24T17:29:59.123Z,6.27
2018-12-24T17:32:27.951Z,8.03
2018-12-24T17:34:56.989Z,7.60
2018-12-24T17:37:25.740Z,9.57
2018-12-24T17:39:54.450Z,9.30
2018-12-24T17:42:23.403Z,8.07
2018-12-24T17:44:52.091Z,9.10
2018-12-24T17:47:20.931Z,7.47
2018-12-24T17:49:49.841Z,7.77
2018-12-24T17:52:18.354Z,8.50
2018-12-24T17:54:47.100Z,7.53
2018-12-24T17:57:15.712Z,6.90
2018-12-24T17:59:44.306Z,5.77
2018-12-24T18:02:12.916Z,4.97
2018-12-24T18:04:42.380Z,5.17
2018-12-24T18:07:10.843Z,5.20
2018-12-24T18:09:39.335Z,7.57
2018-12-24T18:12:08.819Z,5.87
2018-12-24T18:14:37.402Z,4.83
2018-12-24T18:17:05.983Z,8.67
2018-12-24T18:19:34.556Z,4.27
2018-12-24T18:22:03.475Z,4.80
2018-12-24T18:24:32.679Z,7.60
2018-12-24T18:27:01.643Z,5.20
2018-12-24T18:29:30.550Z,6.70
2018-12-24T18:31:59.193Z,7.90
2018-12-24T18:34:29.401Z,5.53
2018-12-24T18:36:58.383Z,6.93
2018-12-24T18:39:27.526Z,5.47
2018-12-24T18:41:56.742Z,5.07
2018-12-24T18:44:25.326Z,5.97
2018-12-24T18:46:54.375Z,5.97
2018-12-24T18:49:23.427Z,9.63
2018-12-24T18:51:52.689Z,7.90
2018-12-24T18:54:22.845Z,7.67
2018-12-24T18:56:51.949Z,7.80
2018-12-24T18:59:20.742Z,8.10
2018-12-24T19:01:50.130Z,8.53
2018-12-24T19:04:19.282Z,11.70
2018-12-24T19:06:48.342Z,11.13
2018-12-24T19:09:17.487Z,10.50
2018-12-24T19:11:46.111Z,8.90
2018-12-24T19:14:14.727Z,12.40
2018-12-24T19:16:43.461Z,10.27
2018-12-24T19:19:12.097Z,11.57
2018-12-24T19:21:44.001Z,11.03
2018-12-24T19:24:09.916Z,10.43
2018-12-24T19:26:38.404Z,14.87
2018-12-24T19:29:06.872Z,16.63
2018-12-24T19:31:35.520Z,9.00
2018-12-24T19:34:04.689Z,8.57
2018-12-24T19:36:33.983Z,9.93
2018-12-24T19:39:02.945Z,6.87
2018-12-24T19:41:31.736Z,8.40
2018-12-24T19:44:00.368Z,10.13
2018-12-24T19:46:28.893Z,10.90
2018-12-24T19:49:00.796Z,9.80
2018-12-24T19:51:34.821Z,11.57
2018-12-24T19:54:04.421Z,8.60
2018-12-24T19:56:32.938Z,9.85
2018-12-24T19:59:02.136Z,10.97
2018-12-24T20:01:31.000Z,9.67
2018-12-24T20:03:59.761Z,9.73
2018-12-24T20:06:28.561Z,12.47
2018-12-24T20:08:57.452Z,10.07
2018-12-24T20:11:26.318Z,9.10
2018-12-24T20:13:55.313Z,9.37
2018-12-24T20:16:24.231Z,10.07
2018-12-24T20:18:53.173Z,7.40
2018-12-24T20:21:21.824Z,10.67
2018-12-24T20:23:50.765Z,9.93
2018-12-24T20:26:20.252Z,9.77
2018-12-24T20:28:48.917Z,7.50
2018-12-24T20:31:18.994Z,9.20
2018-12-24T20:33:48.059Z,8.73
2018-12-24T20:36:17.715Z,6.57
2018-12-24T20:38:46.446Z,6.90
2018-12-24T20:41:15.114Z,7.00
2018-12-24T20:43:44.230Z,5.50
2018-12-24T20:46:13.338Z,6.70
2018-12-24T20:48:42.861Z,4.80
2018-12-24T20:51:16.194Z,5.80
2018-12-24T20:53:40.502Z,5.80
2018-12-24T20:56:13.669Z,6.07
2018-12-24T20:58:42.349Z,7.23
2018-12-24T21:01:11.413Z,5.08
2018-12-24T21:03:40.316Z,5.07
2018-12-24T21:06:09.197Z,6.97
2018-12-24T21:08:37.870Z,3.80
2018-12-24T21:11:06.648Z,6.07
2018-12-24T21:13:35.592Z,4.43
2018-12-24T21:16:04.753Z,6.03
2018-12-24T21:18:33.337Z,6.60
2018-12-24T21:21:04.180Z,6.23
2018-12-24T21:23:32.888Z,4.37
2018-12-24T21:26:01.469Z,3.77
2018-12-24T21:28:30.317Z,4.50
2018-12-24T21:30:59.041Z,6.37
2018-12-24T21:33:27.529Z,2.77
2018-12-24T21:35:56.171Z,3.90
2018-12-24T21:38:24.796Z,4.10
2018-12-24T21:40:53.487Z,4.50
2018-12-24T21:43:22.229Z,6.60
2018-12-24T21:45:51.037Z,5.10
2018-12-24T21:48:23.744Z,5.77
2018-12-24T21:50:48.177Z,7.03
2018-12-24T21:53:18.256Z,3.93
2018-12-24T21:55:47.104Z,4.37
2018-12-24T21:58:16.472Z,3.83
2018-12-24T22:00:45.928Z,5.90
2018-12-24T22:03:14.750Z,3.87
2018-12-24T22:05:43.250Z,4.03
2018-12-24T22:08:11.834Z,5.93
2018-12-24T22:10:40.306Z,5.80
2018-12-24T22:13:09.112Z,3.17
2018-12-24T22:15:37.742Z,4.77
2018-12-24T22:18:06.204Z,2.73
2018-12-24T22:20:34.683Z,5.87
2018-12-24T22:23:03.185Z,6.57
2018-12-24T22:25:31.743Z,9.60
2018-12-24T22:28:00.227Z,6.23
2018-12-24T22:30:28.684Z,8.80
2018-12-24T22:32:57.488Z,6.57
2018-12-24T22:35:26.041Z,8.20
2018-12-24T22:37:54.548Z,6.87
2018-12-24T22:40:22.996Z,7.37
2018-12-24T22:42:51.737Z,3.73
2018-12-24T22:45:20.421Z,5.17
2018-12-24T22:47:48.888Z,7.07
2018-12-24T22:50:17.463Z,7.83
2018-12-24T22:52:45.898Z,6.17
2018-12-24T22:55:14.757Z,6.45
2018-12-24T22:57:43.238Z,8.40
2018-12-24T23:00:13.839Z,2.50
2018-12-24T23:02:43.374Z,4.13
2018-12-24T23:05:11.799Z,2.90
2018-12-24T23:07:40.258Z,5.23
2018-12-24T23:10:09.050Z,3.47
2018-12-24T23:12:37.532Z,3.93
2018-12-24T23:15:06.770Z,6.67
2018-12-24T23:17:35.243Z,5.57
2018-12-24T23:20:03.939Z,5.73
2018-12-24T23:22:32.378Z,7.27
2018-12-24T23:25:02.383Z,5.57
2018-12-24T23:27:30.875Z,4.87
2018-12-24T23:29:59.358Z,5.73
2018-12-24T23:32:27.823Z,6.40
2018-12-24T23:34:56.303Z,5.83
2018-12-24T23:37:24.823Z,6.00
2018-12-24T23:39:53.595Z,3.80
2018-12-24T23:42:22.387Z,5.00
2018-12-24T23:44:51.198Z,5.30
2018-12-24T23:47:19.841Z,5.37
2018-12-24T23:49:48.294Z,4.30
2018-12-24T23:52:16.721Z,7.47
2018-12-24T23:54:45.201Z,4.23
2018-12-24T23:57:13.852Z,5.80
2018-12-24T23:59:42.424Z,6.73
